EDT,Max TemperatureF,Mean TemperatureF,Min TemperatureF,Max Dew PointF,MeanDew PointF,Min DewpointF,Max Humidity, Mean Humidity, Min Humidity, Max Sea Level PressureIn, Mean Sea Level PressureIn, Min Sea Level PressureIn, Max VisibilityMiles, Mean VisibilityMiles, Min VisibilityMiles, Max Wind SpeedMPH, Mean Wind SpeedMPH, Max Gust SpeedMPH,PrecipitationIn, CloudCover, Events, WindDirDegrees
2013-6-1,91,81,73,73,72,70,94,76,57,30.09,30.05,30.00,10,10,6,16,9,22,0.01,3,Rain,91
2013-6-2,93,83,75,75,73,70,94,85,50,30.03,29.98,29.89,10,9,1,12,5,,0.38,6,Rain-Thunderstorm,118
2013-6-3,90,81,73,75,74,71,94,81,57,30.02,29.96,29.90,10,10,2,13,4,21,0.24,3,Rain,193
2013-6-4,89,80,73,74,72,71,94,87,59,30.06,30.02,29.96,10,8,2,17,6,23,0.69,5,Rain,206
2013-6-5,87,78,73,74,72,68,91,82,57,30.04,29.99,29.93,10,10,5,14,5,21,0.02,6,Rain,125
2013-6-6,82,78,73,75,72,70,94,89,74,29.93,29.77,29.64,10,6,0,26,15,37,2.07,7,Fog-Rain,150
2013-6-7,90,81,73,73,72,70,94,79,55,29.97,29.86,29.77,10,10,5,15,11,24,0.01,3,Rain,234
2013-6-8,89,81,73,75,73,71,94,84,61,30.12,30.05,29.98,10,9,2,10,5,17,0.35,3,Rain,191
2013-6-9,91,82,73,76,73,71,94,84,57,30.13,30.10,30.05,10,10,9,20,5,24,0.10,2,Rain,117
2013-6-10,91,83,75,75,73,69,94,76,48,30.13,30.09,30.04,10,10,10,9,4,,0.00,1,,156
2013-6-11,91,82,73,76,73,70,94,85,54,30.12,30.08,30.04,10,8,0,29,5,36,1.49,3,Fog-Rain,192
2013-6-12,96,84,73,75,72,68,94,71,41,30.10,30.06,30.01,10,10,10,14,4,23,0.00,2,Rain-Thunderstorm,248
2013-6-13,93,84,75,75,73,69,94,71,48,30.05,29.99,29.91,10,10,9,13,6,17,0.00,0,,264
2013-6-14,90,82,75,75,73,70,94,73,52,29.95,29.92,29.87,10,10,10,13,7,21,0.00,1,,253
2013-6-15,90,82,75,79,74,71,100,85,61,30.10,30.02,29.93,10,7,1,13,7,17,1.19,6,Rain-Thunderstorm,80
2013-6-16,90,82,75,76,74,71,94,81,61,30.12,30.09,30.04,10,8,1,13,6,,0.49,7,Rain-Thunderstorm,99
2013-6-17,93,85,77,77,74,71,90,79,49,30.10,30.05,29.99,10,10,10,15,6,22,0.06,5,Rain-Thunderstorm,158
2013-6-18,91,83,75,76,74,71,94,74,55,30.08,30.03,29.98,10,10,10,13,5,18,0.00,1,Rain,237
2013-6-19,89,82,75,76,74,70,90,78,65,30.07,30.03,29.98,10,9,0,24,6,30,0.51,1,Rain-Thunderstorm,204
2013-6-20,93,83,73,75,72,69,94,81,45,30.12,30.08,30.03,10,8,0,32,5,45,0.81,3,Fog-Rain-Thunderstorm,161
2013-6-21,90,81,73,73,72,69,93,81,52,30.14,30.11,30.07,10,10,9,15,3,23,0.00,1,,83
2013-6-22,91,82,73,74,72,69,94,82,54,30.14,30.11,30.09,10,10,9,17,3,25,0.08,2,Rain,56
2013-6-23,91,82,75,75,73,69,90,78,50,30.17,30.13,30.11,10,9,2,12,5,24,0.30,2,Rain,128
2013-6-24,91,84,77,74,73,70,90,72,50,30.22,30.16,30.10,10,10,10,13,7,,0.00,1,Rain,127
2013-6-25,91,84,77,75,72,67,90,70,45,30.18,30.12,30.06,10,10,10,13,6,,0.00,0,,135
2013-6-26,93,83,75,75,73,70,91,79,48,30.11,30.07,30.02,10,9,1,17,6,23,0.82,3,Rain-Thunderstorm,147
2013-6-27,89,82,75,77,73,71,89,79,65,30.06,30.02,29.96,10,8,1,14,5,,0.30,1,Rain,232
2013-6-28,90,82,77,76,75,73,90,82,63,29.99,29.94,29.85,10,7,2,12,6,18,0.04,1,Rain,217
2013-6-29,87,81,75,77,74,72,90,82,69,29.89,29.85,29.81,10,8,1,16,9,30,0.44,3,Rain,226
2013-6-30,87,80,75,76,74,72,90,85,70,29.90,29.86,29.83,10,9,1,17,9,28,0.31,2,Rain,199